createdAt,value
2023-02-06T00:02:50.108Z,12.90
2023-02-06T00:12:51.368Z,11.65
2023-02-06T00:22:52.617Z,12.80
2023-02-06T00:32:53.882Z,13.02
2023-02-06T00:42:55.159Z,12.40
2023-02-06T00:52:56.447Z,12.05
2023-02-06T01:02:57.754Z,11.30
2023-02-06T01:12:59.101Z,11.70
2023-02-06T01:23:00.362Z,11.52
2023-02-06T01:33:07.042Z,12.70
2023-02-06T01:43:08.300Z,11.88
2023-02-06T01:53:09.561Z,13.05
2023-02-06T02:03:10.838Z,13.02
2023-02-06T02:13:12.094Z,13.80
2023-02-06T02:23:13.359Z,14.95
2023-02-06T02:33:14.619Z,15.15
2023-02-06T02:43:16.371Z,16.05
2023-02-06T02:53:17.677Z,15.85
2023-02-06T03:03:20.627Z,16.88
2023-02-06T03:13:21.923Z,18.85
2023-02-06T03:23:23.192Z,18.60
2023-02-06T03:33:24.462Z,18.40
2023-02-06T03:43:25.744Z,19.05
2023-02-06T03:53:26.999Z,19.35
2023-02-06T04:03:28.253Z,18.95
2023-02-06T04:13:29.512Z,20.00
2023-02-06T04:23:30.777Z,19.30
2023-02-06T04:33:32.097Z,19.23
2023-02-06T04:43:33.339Z,18.08
2023-02-06T04:53:34.670Z,16.95
2023-02-06T05:03:35.926Z,17.35
2023-02-06T05:13:37.166Z,18.77
2023-02-06T05:23:38.427Z,17.42
2023-02-06T05:33:39.673Z,18.35
2023-02-06T05:43:40.924Z,21.67
2023-02-06T05:53:42.166Z,21.73
2023-02-06T06:03:43.727Z,21.95
2023-02-06T06:13:45.086Z,21.95
2023-02-06T06:23:46.382Z,22.42
2023-02-06T06:33:47.711Z,21.05
2023-02-06T06:43:51.282Z,22.23
2023-02-06T06:53:52.796Z,21.10
2023-02-06T07:03:54.056Z,21.73
2023-02-06T07:13:55.346Z,19.27
2023-02-06T07:23:56.685Z,18.00
2023-02-06T07:33:58.022Z,19.70
2023-02-06T07:43:59.327Z,18.70
2023-02-06T07:54:00.589Z,18.10
2023-02-06T08:04:01.924Z,17.25
2023-02-06T08:14:03.220Z,17.55
2023-02-06T08:24:04.706Z,16.05
2023-02-06T08:34:05.986Z,16.20
2023-02-06T08:44:07.325Z,15.23
2023-02-06T08:54:08.597Z,13.52
2023-02-06T09:04:09.867Z,12.45
2023-02-06T09:14:11.144Z,13.00
2023-02-06T09:24:12.472Z,12.35
2023-02-06T09:34:13.782Z,12.90
2023-02-06T09:44:15.040Z,13.20
2023-02-06T09:54:16.359Z,12.35
2023-02-06T10:04:17.629Z,12.57
2023-02-06T10:14:22.168Z,12.15
2023-02-06T10:34:24.713Z,13.77
2023-02-06T10:44:25.995Z,12.95
2023-02-06T10:54:27.287Z,9.10
2023-02-06T11:04:28.544Z,8.65
2023-02-06T11:14:29.831Z,7.20
2023-02-06T11:24:31.110Z,9.57
2023-02-06T11:34:32.396Z,8.38
2023-02-06T11:44:33.685Z,7.85
2023-02-06T11:54:35.235Z,6.65
2023-02-06T12:04:36.611Z,7.20
2023-02-06T12:14:37.860Z,10.27
2023-02-06T12:24:40.223Z,5.43
2023-02-06T12:34:45.460Z,5.47
2023-02-06T12:44:46.714Z,3.22
2023-02-06T12:54:48.036Z,3.72
2023-02-06T13:04:49.291Z,4.00
2023-02-06T13:14:50.632Z,4.95
2023-02-06T13:24:51.953Z,4.00
2023-02-06T13:34:53.766Z,4.85
2023-02-06T13:44:55.048Z,4.28
2023-02-06T13:54:56.334Z,4.60
2023-02-06T14:04:57.579Z,4.03
2023-02-06T14:14:58.875Z,4.10
2023-02-06T14:25:04.589Z,4.25
2023-02-06T14:35:05.983Z,4.40
2023-02-06T14:45:07.251Z,5.28
2023-02-06T14:55:08.521Z,4.90
2023-02-06T15:05:09.785Z,4.13
2023-02-06T15:15:11.096Z,4.45
2023-02-06T15:25:12.622Z,4.60
2023-02-06T15:35:13.884Z,5.55
2023-02-06T15:45:15.157Z,4.22
2023-02-06T15:55:16.441Z,4.50
2023-02-06T16:05:17.714Z,5.80
2023-02-06T16:15:19.024Z,5.78
2023-02-06T16:25:21.484Z,7.03
2023-02-06T16:35:22.825Z,7.38
2023-02-06T16:45:24.138Z,16.55
2023-02-06T16:55:25.455Z,16.80
2023-02-06T17:05:26.766Z,10.63
2023-02-06T17:15:29.287Z,9.90
2023-02-06T17:25:30.646Z,12.23
2023-02-06T17:35:32.174Z,8.95
2023-02-06T17:45:33.440Z,15.60
2023-02-06T17:55:34.825Z,20.60
2023-02-06T18:05:36.520Z,14.60
2023-02-06T18:15:38.097Z,11.48
2023-02-06T18:25:39.480Z,14.45
2023-02-06T18:35:40.739Z,14.65
2023-02-06T18:45:42.295Z,10.10
2023-02-06T18:55:43.563Z,10.48
2023-02-06T19:05:45.365Z,7.97
2023-02-06T19:15:46.701Z,8.35
2023-02-06T19:25:47.973Z,5.43
2023-02-06T19:35:49.246Z,6.18
2023-02-06T19:45:50.538Z,7.63
2023-02-06T19:55:51.809Z,7.30
2023-02-06T20:05:53.083Z,7.72
2023-02-06T20:15:54.437Z,5.43
2023-02-06T20:25:55.742Z,5.38
2023-02-06T20:35:56.995Z,5.88
2023-02-06T20:45:58.300Z,4.32
2023-02-06T20:55:59.637Z,4.45
2023-02-06T21:06:00.924Z,3.65
2023-02-06T21:16:02.317Z,3.45
2023-02-06T21:26:03.778Z,3.95
2023-02-06T21:36:06.926Z,4.32
2023-02-06T21:46:08.214Z,3.60
2023-02-06T21:56:09.529Z,3.40
2023-02-06T22:06:11.774Z,4.05
2023-02-06T22:16:13.096Z,4.57
2023-02-06T22:26:14.380Z,4.70
2023-02-06T22:36:15.740Z,4.10
2023-02-06T22:46:17.030Z,5.60
2023-02-06T22:56:27.443Z,3.80
2023-02-06T23:06:28.776Z,4.63
2023-02-06T23:16:30.181Z,4.30
2023-02-06T23:26:31.491Z,4.38
2023-02-06T23:36:32.742Z,4.40
2023-02-06T23:46:34.567Z,4.50
2023-02-06T23:56:35.849Z,4.50
